Memphis, TN

8:56 PM CDT on August 31, 2016 (GMT -0500)
Midtown Memphis (OEM) | | Change Station

Elev 320 ft 35.13 °N, 89.97 °W | Updated 5 seconds ago

Mostly Cloudy
Mostly Cloudy
84.9 °F
Feels Like 94 °F
N
0.0
Wind Variable Wind from NE
Gusts 11.0 mph

Today
High -- | Low -- °F
--% Chance of Precip.
Yesterday
High -- | Low -- °F
Precip. -- in
Pressure 29.94 in
Visibility 10.0 miles
Clouds Mostly Cloudy 25000 ft
Heat Index 94 °F
Dew Point 76 °F
Humidity 74%
Rainfall in
Snow Depth Not available.
6:32 AM 7:27 PM
Waning Crescent, 0% visible
METAR KMEM 010154Z 03009KT 10SM BKN250 31/22 A2995 RMK AO2 SLP138 T03060222
Pressure 29.94 in
Visibility 10.0 miles
Clouds Mostly Cloudy 25000 ft
Heat Index 94 °F
Dew Point 76 °F
Humidity 74%
Rainfall in
Snow Depth Not available.
6:32 AM 7:27 PM
Waning Crescent, 0% visible
METAR KMEM 010154Z 03009KT 10SM BKN250 31/22 A2995 RMK AO2 SLP138 T03060222

10-Day Weather Forecast

Almanac

Astronomy

Aug. 31, 2016 Rise Set
Actual Time
Civil Twilight
Nautical Twilight
Astronomical Twilight
Moon
Length of Visible Light
Length of Day
Tomorrow will be .
, % of the Moon is Illuminated

Today's Extremes

State Highs State Lows

Community

WunderPhotos

Upload Photos

1,936,266 photos uploaded!

WunderBlog® & News

Nearby

Air Quality

  Air Quality AQ Index Pollutant
Not available.

Snow Depth

Station Depth Elevation

Earthquake Activity

City Distance Mag. Time & Date
Minimum magnitude displayed is 2.5.

Coastal Water Temperatures

Place Temperature

Stations

Nearby Weather Stations

Station Location Temp. Windchill Dew Point Humidity Wind Precip. Elev Updated Type
                   

Watches & Warnings

There are currently no watches in effect.